createdAt,value
2022-08-16T00:00:21.979Z,3.60
2022-08-16T00:03:07.599Z,2.95
2022-08-16T00:05:47.855Z,3.67
2022-08-16T00:08:35.757Z,3.55
2022-08-16T00:11:15.412Z,3.83
2022-08-16T00:13:54.247Z,3.97
2022-08-16T00:17:01.135Z,4.15
2022-08-16T00:19:23.654Z,4.55
2022-08-16T00:21:56.126Z,4.20
2022-08-16T00:24:32.194Z,4.07
2022-08-16T00:27:04.089Z,4.57
2022-08-16T00:29:32.958Z,4.30
2022-08-16T00:32:06.530Z,4.43
2022-08-16T00:34:43.521Z,4.40
2022-08-16T00:37:56.320Z,3.65
2022-08-16T00:40:36.693Z,3.45
2022-08-16T00:43:11.692Z,3.50
2022-08-16T00:45:58.070Z,3.15
2022-08-16T00:48:40.374Z,3.75
2022-08-16T00:51:17.351Z,2.70
2022-08-16T00:53:49.846Z,2.95
2022-08-16T00:56:58.486Z,2.70
2022-08-16T00:59:25.274Z,3.10
2022-08-16T01:01:54.225Z,2.72
2022-08-16T01:04:29.724Z,3.35
2022-08-16T01:07:02.687Z,3.15
2022-08-16T01:09:38.515Z,3.25
2022-08-16T01:12:12.066Z,3.22
2022-08-16T01:14:59.428Z,3.67
2022-08-16T01:17:36.632Z,3.65
2022-08-16T01:20:23.947Z,3.85
2022-08-16T01:24:01.239Z,3.97
2022-08-16T01:26:34.534Z,3.38
2022-08-16T01:29:11.008Z,2.97
2022-08-16T01:31:42.522Z,3.40
2022-08-16T01:34:25.308Z,2.47
2022-08-16T01:37:11.159Z,3.60
2022-08-16T01:39:57.877Z,3.60
2022-08-16T01:44:56.658Z,3.15
2022-08-16T01:50:43.473Z,3.42
2022-08-16T01:52:46.567Z,3.58
2022-08-16T01:55:25.995Z,3.20
2022-08-16T01:58:03.727Z,3.05
2022-08-16T02:00:31.484Z,2.75
2022-08-16T02:03:00.457Z,3.03
2022-08-16T02:05:31.028Z,3.08
2022-08-16T02:08:03.400Z,2.67
2022-08-16T02:10:34.166Z,3.15
2022-08-16T02:13:06.869Z,3.40
2022-08-16T02:15:42.338Z,2.80
2022-08-16T02:18:13.032Z,3.00
2022-08-16T02:20:47.415Z,3.38
2022-08-16T02:23:17.148Z,3.00
2022-08-16T02:25:52.708Z,3.90
2022-08-16T02:28:26.343Z,2.88
2022-08-16T02:30:57.853Z,2.97
2022-08-16T02:33:42.842Z,3.05
2022-08-16T02:36:47.236Z,3.35
2022-08-16T02:39:11.414Z,3.03
2022-08-16T02:41:47.015Z,2.90
2022-08-16T02:44:21.582Z,3.28
2022-08-16T02:46:53.763Z,3.38
2022-08-16T02:49:58.014Z,3.33
2022-08-16T02:54:55.842Z,3.42
2022-08-16T02:57:26.611Z,3.30
2022-08-16T02:59:54.626Z,2.47
2022-08-16T03:02:31.720Z,3.35
2022-08-16T03:05:03.363Z,3.50
2022-08-16T03:07:37.002Z,3.47
2022-08-16T03:10:11.313Z,4.13
2022-08-16T03:12:55.705Z,3.25
2022-08-16T03:15:27.743Z,3.05
2022-08-16T03:17:56.771Z,4.20
2022-08-16T03:20:32.118Z,3.63
2022-08-16T03:23:03.916Z,4.43
2022-08-16T03:25:43.156Z,4.15
2022-08-16T03:28:14.094Z,3.70
2022-08-16T03:30:46.070Z,3.50
2022-08-16T03:33:16.662Z,3.65
2022-08-16T03:35:59.370Z,3.72
2022-08-16T03:38:49.425Z,3.58
2022-08-16T03:41:25.429Z,3.72
2022-08-16T03:43:58.913Z,3.33
2022-08-16T03:46:44.961Z,3.63
2022-08-16T03:49:23.632Z,3.75
2022-08-16T03:52:05.206Z,3.58
2022-08-16T03:54:37.373Z,3.40
2022-08-16T03:57:06.200Z,3.63
2022-08-16T03:59:39.657Z,3.75
2022-08-16T04:02:22.712Z,3.72
2022-08-16T04:05:00.644Z,3.78
2022-08-16T04:07:33.530Z,3.33
2022-08-16T04:10:36.061Z,4.47
2022-08-16T04:12:59.360Z,3.30
2022-08-16T04:15:30.642Z,3.70
2022-08-16T04:18:21.307Z,4.18
2022-08-16T04:20:51.001Z,3.58
2022-08-16T04:23:22.418Z,4.00
2022-08-16T04:25:51.213Z,3.35
2022-08-16T04:28:54.319Z,3.92
2022-08-16T04:31:12.039Z,4.32
2022-08-16T04:33:50.857Z,3.53
2022-08-16T04:36:21.360Z,4.22
2022-08-16T04:38:50.160Z,3.67
2022-08-16T04:41:20.595Z,3.95
2022-08-16T04:44:02.191Z,3.95
2022-08-16T04:47:02.866Z,3.65
2022-08-16T04:49:44.048Z,3.53
2022-08-16T04:52:32.822Z,3.55
2022-08-16T04:55:20.900Z,3.47
2022-08-16T04:58:00.336Z,4.03
2022-08-16T05:00:36.142Z,3.63
2022-08-16T05:03:23.906Z,4.13
2022-08-16T05:05:59.338Z,3.40
2022-08-16T05:08:31.509Z,4.03
2022-08-16T05:11:22.777Z,3.60
2022-08-16T05:13:51.772Z,3.83
2022-08-16T05:16:29.900Z,3.97
2022-08-16T05:19:13.329Z,3.65
2022-08-16T05:22:04.601Z,3.60
2022-08-16T05:24:35.259Z,2.75
2022-08-16T05:27:11.581Z,3.80
2022-08-16T05:30:00.825Z,3.60
2022-08-16T05:32:34.095Z,2.90
2022-08-16T05:35:11.452Z,3.40
2022-08-16T05:37:46.044Z,3.03
2022-08-16T05:40:16.345Z,3.35
2022-08-16T05:42:49.454Z,3.00
2022-08-16T05:45:22.264Z,3.40
2022-08-16T05:47:59.678Z,3.22
2022-08-16T05:50:34.481Z,2.92
2022-08-16T05:53:03.770Z,3.03
2022-08-16T05:55:40.593Z,2.92
2022-08-16T05:58:09.341Z,3.33
2022-08-16T06:00:57.377Z,3.05
2022-08-16T06:03:26.499Z,4.35
2022-08-16T06:06:13.659Z,2.22
2022-08-16T06:08:55.942Z,2.88
2022-08-16T06:11:25.641Z,2.65
2022-08-16T06:13:57.797Z,2.40
2022-08-16T06:16:39.262Z,3.80
2022-08-16T06:19:06.845Z,2.83
2022-08-16T06:21:38.375Z,3.90
2022-08-16T06:24:54.815Z,3.03
2022-08-16T06:26:57.679Z,2.97
2022-08-16T06:29:29.516Z,2.55
2022-08-16T06:31:58.066Z,3.13
2022-08-16T06:34:55.422Z,3.60
2022-08-16T06:37:16.095Z,3.30
2022-08-16T06:39:46.648Z,3.30
2022-08-16T06:42:39.525Z,3.05
2022-08-16T06:45:32.244Z,3.05
2022-08-16T06:48:13.626Z,3.17
2022-08-16T06:50:51.937Z,2.85
2022-08-16T06:53:21.033Z,2.47
2022-08-16T06:56:06.025Z,3.10
2022-08-16T06:58:47.297Z,2.53
2022-08-16T07:01:44.531Z,2.90
2022-08-16T07:04:10.375Z,3.20
2022-08-16T07:06:43.244Z,2.72
2022-08-16T07:09:15.923Z,2.53
2022-08-16T07:11:51.545Z,3.00
2022-08-16T07:14:33.425Z,2.20
2022-08-16T07:17:08.133Z,2.90
2022-08-16T07:20:03.497Z,2.42
2022-08-16T07:22:39.093Z,2.25
2022-08-16T07:25:20.542Z,2.55
2022-08-16T07:27:52.525Z,2.38
2022-08-16T07:30:39.372Z,2.75
2022-08-16T07:33:21.437Z,3.42
2022-08-16T07:36:09.690Z,2.60
2022-08-16T07:38:43.444Z,2.70
2022-08-16T07:41:15.221Z,2.20
2022-08-16T07:43:47.601Z,2.83
2022-08-16T07:46:39.105Z,2.72
2022-08-16T07:49:11.400Z,2.53
2022-08-16T07:51:42.184Z,2.25
2022-08-16T07:54:20.987Z,2.28
2022-08-16T07:56:52.333Z,1.80
2022-08-16T07:59:21.713Z,1.90
2022-08-16T08:01:53.002Z,1.98
2022-08-16T08:04:22.392Z,1.98
2022-08-16T08:06:52.235Z,1.60
2022-08-16T08:09:20.158Z,1.70
2022-08-16T08:14:32.798Z,1.95
2022-08-16T08:17:01.975Z,2.42
2022-08-16T08:19:34.740Z,1.85
2022-08-16T08:22:06.465Z,1.90
2022-08-16T08:24:44.170Z,1.88
2022-08-16T08:27:23.014Z,2.13
2022-08-16T08:30:50.073Z,2.20
2022-08-16T08:32:57.230Z,2.42
2022-08-16T08:35:28.812Z,2.67
2022-08-16T08:37:58.940Z,2.25
2022-08-16T08:40:30.769Z,1.88
2022-08-16T08:43:18.266Z,2.60
2022-08-16T08:45:55.678Z,2.33
2022-08-16T08:48:34.369Z,2.30
2022-08-16T08:51:11.191Z,2.70
2022-08-16T08:53:58.595Z,2.72
2022-08-16T08:56:34.732Z,2.20
2022-08-16T08:59:23.595Z,1.90
2022-08-16T09:01:57.014Z,2.03
2022-08-16T09:04:29.047Z,2.35
2022-08-16T09:06:58.335Z,2.28
2022-08-16T09:09:33.450Z,2.40
2022-08-16T09:12:07.020Z,2.60
2022-08-16T09:14:50.995Z,1.90
2022-08-16T09:17:48.966Z,1.88
2022-08-16T09:20:14.454Z,1.83
2022-08-16T09:22:44.423Z,2.10
2022-08-16T09:25:26.064Z,2.05
2022-08-16T09:27:57.853Z,1.50
2022-08-16T09:30:43.115Z,2.15
2022-08-16T09:33:20.009Z,2.55
2022-08-16T09:35:53.313Z,1.40
2022-08-16T09:38:32.444Z,1.70
2022-08-16T09:41:14.581Z,2.08
2022-08-16T09:43:58.620Z,1.83
2022-08-16T09:46:48.414Z,2.10
2022-08-16T09:49:20.032Z,2.05
2022-08-16T09:51:55.556Z,1.10
2022-08-16T09:54:32.432Z,1.75
2022-08-16T09:57:01.698Z,1.77
2022-08-16T09:59:31.439Z,1.20
2022-08-16T10:02:26.525Z,1.70
2022-08-16T10:04:56.697Z,1.95
2022-08-16T10:07:44.159Z,1.58
2022-08-16T10:10:19.093Z,1.30
2022-08-16T10:13:12.121Z,1.55
2022-08-16T10:15:54.753Z,1.23
2022-08-16T10:18:56.745Z,1.70
2022-08-16T10:21:11.644Z,0.87
2022-08-16T10:23:40.477Z,0.90
2022-08-16T10:27:20.023Z,1.42
2022-08-16T10:28:58.804Z,0.80
2022-08-16T10:31:45.548Z,1.13
2022-08-16T10:34:31.569Z,1.08
2022-08-16T10:37:02.173Z,1.08
2022-08-16T10:39:41.522Z,1.75
2022-08-16T10:42:13.164Z,1.45
2022-08-16T10:44:42.250Z,1.60
2022-08-16T10:49:39.526Z,1.42
2022-08-16T10:52:18.370Z,1.60
2022-08-16T10:57:35.087Z,1.27
2022-08-16T11:00:20.796Z,1.63
2022-08-16T11:02:57.694Z,1.70
2022-08-16T11:08:31.261Z,1.38
2022-08-16T11:11:12.700Z,1.20
2022-08-16T11:14:10.932Z,1.13
2022-08-16T11:19:24.465Z,1.20
2022-08-16T11:24:45.199Z,1.35
2022-08-16T11:27:23.421Z,1.02
2022-08-16T11:32:31.240Z,1.00
2022-08-16T11:35:10.349Z,1.65
2022-08-16T11:38:42.274Z,1.38
2022-08-16T11:40:52.399Z,1.48
2022-08-16T11:43:28.319Z,0.60
2022-08-16T11:46:01.468Z,1.13
2022-08-16T11:48:47.897Z,1.13
2022-08-16T11:51:15.668Z,0.88
2022-08-16T11:53:43.173Z,0.98
2022-08-16T11:56:11.671Z,1.00
2022-08-16T11:58:42.700Z,1.65
2022-08-16T12:01:19.894Z,1.13
2022-08-16T12:03:57.724Z,1.20
2022-08-16T12:06:30.773Z,1.65
2022-08-16T12:09:01.987Z,1.38
2022-08-16T12:11:31.939Z,0.95
2022-08-16T12:14:07.618Z,0.95
2022-08-16T12:16:37.026Z,1.00
2022-08-16T12:19:10.426Z,1.30
2022-08-16T12:21:58.380Z,1.52
2022-08-16T12:24:28.399Z,1.33
2022-08-16T12:26:56.516Z,1.33
2022-08-16T12:29:25.807Z,1.10
2022-08-16T12:32:01.133Z,1.58
2022-08-16T12:34:48.010Z,0.95
2022-08-16T12:37:24.414Z,1.20
2022-08-16T12:39:56.963Z,0.95
2022-08-16T12:42:34.674Z,1.02
2022-08-16T12:45:13.798Z,1.08
2022-08-16T12:50:50.249Z,0.90
2022-08-16T12:53:20.817Z,0.95
2022-08-16T12:55:50.513Z,1.40
2022-08-16T12:58:49.276Z,0.90
2022-08-16T13:03:41.002Z,0.70
2022-08-16T13:06:09.163Z,1.40
2022-08-16T13:08:37.379Z,1.27
2022-08-16T13:11:07.694Z,0.82
2022-08-16T13:13:36.285Z,1.00
2022-08-16T13:16:15.405Z,1.15
2022-08-16T13:18:51.599Z,0.77
2022-08-16T13:21:23.833Z,1.02
2022-08-16T13:23:55.292Z,1.23
2022-08-16T13:26:26.428Z,0.77
2022-08-16T13:28:54.914Z,0.98
2022-08-16T13:31:23.827Z,0.70
2022-08-16T13:33:54.618Z,1.05
2022-08-16T13:36:48.063Z,0.68
2022-08-16T13:39:15.817Z,1.02
2022-08-16T13:41:44.798Z,0.60
2022-08-16T13:44:22.027Z,0.73
2022-08-16T13:47:09.969Z,1.85
2022-08-16T13:49:37.423Z,2.13
2022-08-16T13:52:08.338Z,0.82
2022-08-16T13:54:36.556Z,1.30
2022-08-16T13:57:05.014Z,0.90
2022-08-16T13:59:33.352Z,0.88
2022-08-16T14:02:05.548Z,1.23
2022-08-16T14:04:37.946Z,0.68
2022-08-16T14:07:09.622Z,1.77
2022-08-16T14:09:38.697Z,1.83
2022-08-16T14:12:20.986Z,0.85
2022-08-16T14:14:54.521Z,0.60
2022-08-16T14:17:25.948Z,1.20
2022-08-16T14:19:54.685Z,1.58
2022-08-16T14:22:35.035Z,0.73
2022-08-16T14:25:19.052Z,0.90
2022-08-16T14:27:47.458Z,0.98
2022-08-16T14:30:19.811Z,0.85
2022-08-16T14:32:49.869Z,0.75
2022-08-16T14:35:49.378Z,0.65
2022-08-16T14:38:23.816Z,1.10
2022-08-16T14:40:55.291Z,0.70
2022-08-16T14:43:29.918Z,1.17
2022-08-16T14:45:59.024Z,0.98
2022-08-16T14:48:26.819Z,0.93
2022-08-16T14:50:55.603Z,1.58
2022-08-16T14:53:26.321Z,1.58
2022-08-16T14:55:54.716Z,1.23
2022-08-16T14:58:34.756Z,1.17
2022-08-16T15:01:09.832Z,1.27
2022-08-16T15:03:38.297Z,1.20
2022-08-16T15:06:13.175Z,1.23
2022-08-16T15:08:42.334Z,1.48
2022-08-16T15:11:13.009Z,1.27
2022-08-16T15:13:41.398Z,0.80
2022-08-16T15:18:37.180Z,0.70
2022-08-16T15:21:08.477Z,0.70
2022-08-16T15:23:36.975Z,0.70
2022-08-16T15:26:09.426Z,0.50
2022-08-16T15:28:38.301Z,1.02
2022-08-16T15:31:09.373Z,0.93
2022-08-16T15:33:48.539Z,0.85
2022-08-16T15:36:21.161Z,1.30
2022-08-16T15:38:56.257Z,0.77
2022-08-16T15:44:23.112Z,0.47
2022-08-16T15:46:57.083Z,1.05
2022-08-16T15:49:34.483Z,0.90
2022-08-16T15:52:15.006Z,0.85
2022-08-16T15:54:52.405Z,0.60
2022-08-16T15:57:26.911Z,1.40
2022-08-16T16:00:04.792Z,0.60
2022-08-16T16:02:44.280Z,1.15
2022-08-16T16:05:14.100Z,0.90
2022-08-16T16:07:56.329Z,1.23
2022-08-16T16:10:29.700Z,1.17
2022-08-16T16:13:01.896Z,1.40
2022-08-16T16:15:35.947Z,1.42
2022-08-16T16:18:10.008Z,1.27
2022-08-16T16:20:43.872Z,1.15
2022-08-16T16:23:12.603Z,1.17
2022-08-16T16:25:44.688Z,1.40
2022-08-16T16:29:06.100Z,1.08
2022-08-16T16:31:09.972Z,0.93
2022-08-16T16:33:43.457Z,0.95
2022-08-16T16:36:18.524Z,1.70
2022-08-16T16:38:48.923Z,1.30
2022-08-16T16:41:25.571Z,1.70
2022-08-16T16:43:56.085Z,1.47
2022-08-16T16:46:40.176Z,1.33
2022-08-16T16:49:14.525Z,2.20
2022-08-16T16:51:50.197Z,2.50
2022-08-16T16:54:28.034Z,2.50
2022-08-16T16:59:27.887Z,2.33
2022-08-16T17:02:38.298Z,1.38
2022-08-16T17:04:45.255Z,1.90
2022-08-16T17:07:12.787Z,1.98
2022-08-16T17:09:41.469Z,2.08
2022-08-16T17:12:17.668Z,2.00
2022-08-16T17:14:56.564Z,1.77
2022-08-16T17:17:24.723Z,1.90
2022-08-16T17:19:52.912Z,2.03
2022-08-16T17:22:22.902Z,1.70
2022-08-16T17:24:54.895Z,2.05
2022-08-16T17:30:21.839Z,2.20
2022-08-16T17:33:02.963Z,1.63
2022-08-16T17:35:41.301Z,1.23
2022-08-16T17:38:11.344Z,1.95
2022-08-16T17:39:28.026Z,1.75
2022-08-16T17:40:55.213Z,1.92
2022-08-16T17:43:31.560Z,1.48
2022-08-16T17:46:00.909Z,1.50
2022-08-16T17:48:31.185Z,1.83
2022-08-16T17:50:59.806Z,1.85
2022-08-16T17:53:27.663Z,1.50
2022-08-16T17:55:55.511Z,1.40
2022-08-16T17:58:24.479Z,2.23
2022-08-16T18:00:59.768Z,1.88
2022-08-16T18:04:06.741Z,1.80
2022-08-16T18:06:25.656Z,1.40
2022-08-16T18:09:01.719Z,1.87
2022-08-16T18:11:33.816Z,1.88
2022-08-16T18:14:01.771Z,1.77
2022-08-16T18:16:29.449Z,1.87
2022-08-16T18:18:58.271Z,1.88
2022-08-16T18:21:45.061Z,1.67
2022-08-16T18:24:15.063Z,2.35
2022-08-16T18:26:42.699Z,1.75
2022-08-16T18:29:10.223Z,2.45
2022-08-16T18:31:38.628Z,2.35
2022-08-16T18:34:06.513Z,1.98
2022-08-16T18:36:34.696Z,1.95
2022-08-16T18:39:02.575Z,2.20
2022-08-16T18:41:30.569Z,2.75
2022-08-16T18:44:26.105Z,2.85
2022-08-16T18:46:51.100Z,2.43
2022-08-16T18:49:19.920Z,1.60
2022-08-16T18:51:47.726Z,2.40
2022-08-16T18:54:19.715Z,1.70
2022-08-16T18:56:57.270Z,2.38
2022-08-16T18:59:31.043Z,2.03
2022-08-16T19:02:05.091Z,2.03
2022-08-16T19:04:55.744Z,1.88
2022-08-16T19:07:31.041Z,1.65
2022-08-16T19:10:04.291Z,2.83
2022-08-16T19:12:38.569Z,2.38
2022-08-16T19:15:18.850Z,1.75
2022-08-16T19:17:46.661Z,1.52
2022-08-16T19:20:18.249Z,1.27
2022-08-16T19:28:49.257Z,1.67
2022-08-16T19:31:28.553Z,1.40
2022-08-16T19:33:57.076Z,1.85
2022-08-16T19:36:35.435Z,1.30
2022-08-16T19:39:13.742Z,1.75
2022-08-16T19:41:53.543Z,1.83
2022-08-16T19:44:24.669Z,2.08
2022-08-16T19:46:52.478Z,2.33
2022-08-16T19:49:19.993Z,2.28
2022-08-16T19:51:48.626Z,2.20
2022-08-16T19:56:44.463Z,1.80
2022-08-16T19:59:22.401Z,2.42
2022-08-16T20:02:02.315Z,1.85
2022-08-16T20:04:29.869Z,1.33
2022-08-16T20:06:57.380Z,1.65
2022-08-16T20:09:25.554Z,1.48
2022-08-16T20:11:54.247Z,1.60
2022-08-16T20:14:26.035Z,1.10
2022-08-16T20:16:59.369Z,1.92
2022-08-16T20:19:29.589Z,1.38
2022-08-16T20:22:09.098Z,2.13
2022-08-16T20:24:36.907Z,1.70
2022-08-16T20:27:08.746Z,1.38
2022-08-16T20:29:39.177Z,2.00
2022-08-16T20:32:12.001Z,1.45
2022-08-16T20:34:41.652Z,1.70
2022-08-16T20:37:12.882Z,2.78
2022-08-16T20:39:44.322Z,1.50
2022-08-16T20:42:23.570Z,2.10
2022-08-16T20:47:24.693Z,1.25
2022-08-16T20:49:55.746Z,1.05
2022-08-16T20:52:25.564Z,1.33
2022-08-16T20:54:55.328Z,1.35
2022-08-16T20:57:23.121Z,1.50
2022-08-16T20:59:50.915Z,1.43
2022-08-16T21:02:27.005Z,1.55
2022-08-16T21:04:56.000Z,1.50
2022-08-16T21:07:23.752Z,1.10
2022-08-16T21:09:51.302Z,1.27
2022-08-16T21:12:19.129Z,1.05
2022-08-16T21:14:46.803Z,1.40
2022-08-16T21:17:16.102Z,1.15
2022-08-16T21:19:45.124Z,2.92
2022-08-16T21:22:20.940Z,0.88
2022-08-16T21:24:49.404Z,1.13
2022-08-16T21:27:22.426Z,1.08
2022-08-16T21:29:54.749Z,1.38
2022-08-16T21:32:34.920Z,1.17
2022-08-16T21:35:07.782Z,1.48
2022-08-16T21:37:35.408Z,1.40
2022-08-16T21:40:04.292Z,1.20
2022-08-16T21:42:36.299Z,1.90
2022-08-16T21:45:05.555Z,1.15
2022-08-16T21:47:33.426Z,1.85
2022-08-16T21:50:01.051Z,1.77
2022-08-16T21:52:28.588Z,1.23
2022-08-16T21:54:57.998Z,1.95
2022-08-16T21:57:25.786Z,1.38
2022-08-16T21:59:55.374Z,1.92
2022-08-16T22:02:27.102Z,2.75
2022-08-16T22:05:05.366Z,1.80
2022-08-16T22:07:33.409Z,2.00
2022-08-16T22:11:04.687Z,1.52
2022-08-16T22:12:49.876Z,1.47
2022-08-16T22:15:25.695Z,1.85
2022-08-16T22:17:57.045Z,1.48
2022-08-16T22:20:27.859Z,1.77
2022-08-16T22:23:12.756Z,1.90
2022-08-16T22:25:44.643Z,2.10
2022-08-16T22:28:14.502Z,1.92
2022-08-16T22:30:42.646Z,2.15
2022-08-16T22:33:20.295Z,2.00
2022-08-16T22:36:01.403Z,2.45
2022-08-16T22:38:54.098Z,2.47
2022-08-16T22:41:17.973Z,2.10
2022-08-16T22:43:49.402Z,2.80
2022-08-16T22:46:19.511Z,3.20
2022-08-16T22:48:50.399Z,3.53
2022-08-16T22:51:24.609Z,2.95
2022-08-16T22:53:53.258Z,2.53
2022-08-16T22:56:21.666Z,2.38
2022-08-16T22:58:49.260Z,2.13
2022-08-16T23:01:19.051Z,3.03
2022-08-16T23:03:46.692Z,2.63
2022-08-16T23:06:15.494Z,3.22
2022-08-16T23:08:44.089Z,2.80
2022-08-16T23:11:22.660Z,2.35
2022-08-16T23:13:54.722Z,2.60
2022-08-16T23:16:33.162Z,2.60
2022-08-16T23:19:08.936Z,2.92
2022-08-16T23:21:40.761Z,3.10
2022-08-16T23:24:09.476Z,2.90
2022-08-16T23:26:45.590Z,3.10
2022-08-16T23:29:23.842Z,3.17
2022-08-16T23:32:12.884Z,2.65
2022-08-16T23:34:40.939Z,2.65
2022-08-16T23:37:09.378Z,2.03
2022-08-16T23:39:36.946Z,2.28
2022-08-16T23:42:15.457Z,2.17
2022-08-16T23:45:03.523Z,2.00
2022-08-16T23:47:31.262Z,1.90
2022-08-16T23:50:03.429Z,1.80
2022-08-16T23:52:42.105Z,2.38
2022-08-16T23:55:19.879Z,2.55
2022-08-16T23:57:48.063Z,2.05
